« Back
NWS Peachtree City, Ga » Text Product » CSG Terminal Aerodrome Forecast


Printer-friendly Version
Current Version              Previous Versions:   1  2  3  4  5  6  7  8  9  

Terminal Aerodrome Forecast

263
FTUS42 KFFC 041726
TAFCSG
TAF
KCSG 041726Z 0418/0518 16006KT P6SM SCT070
     FM050200 12003KT P6SM FEW080
     FM051200 09004KT P6SM FEW250
     FM051700 12007KT P6SM SCT060=

USA.gov is the U.S. government's official web portal to all federal, state and local government web resources and services.